< Typhoon 195617 1956 Season Typhoon 195619 >
Typhoon 195618 (JEAN)
General InformationTrack Information on Google Maps || Disaster Info.ResourceGoogle EarthGE AnimationAtom FeedGeoJSON
Detalied Best Track (Time Zone = UTC)
Year Month Day Hour Lat. Long. Pressure (hPa) Wind (kt) Class Image Chart
1956 10 15 00 15.0 134.5 1006 0 2 -- Chart
1956 10 15 06 15.4 134.5 1002 0 2 -- Chart
1956 10 15 12 15.9 134.5 1002 0 2 -- Chart
1956 10 15 18 16.3 134.4 1000 0 2 -- Chart
1956 10 16 00 16.8 134.3 975 0 9 -- Chart
1956 10 16 06 17.1 134.2 975 0 9 -- Chart
1956 10 16 12 17.4 133.8 980 0 9 -- Chart
1956 10 16 18 17.9 133.5 975 0 9 -- Chart
1956 10 17 00 18.5 133.4 975 0 9 -- Chart
1956 10 17 06 18.8 132.9 975 0 9 -- Chart
1956 10 17 12 19.1 132.1 970 0 9 -- Chart
1956 10 17 18 19.8 131.5 970 0 9 -- Chart
1956 10 18 00 20.2 130.5 960 0 9 -- Chart
1956 10 18 06 20.7 129.5 960 0 9 -- Chart
1956 10 18 12 21.2 128.8 965 0 9 -- Chart
1956 10 18 18 21.1 129.5 965 0 9 -- Chart
1956 10 19 00 20.9 130.4 970 0 9 -- Chart
1956 10 19 06 20.9 129.8 970 0 9 -- Chart
1956 10 19 12 20.7 128.3 970 0 9 -- Chart
1956 10 19 18 19.7 127.6 960 0 9 -- Chart
1956 10 20 00 18.3 126.3 955 0 9 -- Chart
1956 10 20 06 18.0 125.3 950 0 9 -- Chart
1956 10 20 12 17.7 124.4 940 0 9 -- Chart
1956 10 20 18 17.3 123.0 940 0 9 -- Chart
1956 10 21 00 17.3 121.8 950 0 9 -- Chart
1956 10 21 06 17.4 120.4 985 0 9 -- Chart
1956 10 21 12 17.6 119.1 985 0 9 -- Chart
1956 10 21 18 17.8 118.2 985 0 9 -- Chart
1956 10 22 00 18.3 117.4 980 0 9 -- Chart
1956 10 22 06 18.5 116.7 980 0 9 -- Chart
1956 10 22 12 18.8 116.0 980 0 9 -- Chart
1956 10 22 18 19.2 115.2 985 0 9 -- Chart
1956 10 23 00 19.5 114.4 985 0 9 -- Chart
1956 10 23 06 19.5 114.2 975 0 9 -- Chart
1956 10 23 12 19.6 114.1 975 0 9 -- Chart
1956 10 23 18 19.8 114.1 980 0 9 -- Chart
1956 10 24 00 19.9 114.1 985 0 9 -- Chart
1956 10 24 06 19.8 114.0 990 0 9 -- Chart
1956 10 24 12 19.5 113.8 994 0 9 -- Chart
1956 10 24 18 19.4 113.6 998 0 9 -- Chart
1956 10 25 00 19.2 113.2 1000 0 9 -- Chart
1956 10 25 06 19.1 113.0 1008 0 9 -- Chart
Japan Meteorological Agency Best Track Data | Correction Date : 1989-06-01
< Typhoon 195617 1956 Season Typhoon 195619 >

Help